Time;durP1;ratioP1;P1;durP2;ratioP2;P2;SDS_P1;SDS_P2;PMS_P1;PMS_P2;Temp;Humidity;BMP_temperature;BMP_pressure;BME280_temperature;BME280_humidity;BME280_pressure;Samples;Min_cycle;Max_cycle;Signal;HPM_P1;HPM_P2
2022/10/25 00:01:36;;;;;;;5.50;2.20;;;15.40;99.90;;;;;;5129355;27;20233;-68
2022/10/25 00:04:03;;;;;;;6.20;2.63;;;15.40;99.90;;;;;;5129847;27;20201;-68
2022/10/25 00:06:30;;;;;;;4.40;2.20;;;15.40;99.90;;;;;;5129465;27;20201;-68
2022/10/25 00:08:56;;;;;;;5.87;2.37;;;15.40;99.90;;;;;;5129442;27;20226;-68
2022/10/25 00:11:26;;;;;;;3.03;2.30;;;15.40;99.90;;;;;;5129367;27;20237;-68
2022/10/25 00:13:54;;;;;;;4.90;2.43;;;15.40;99.90;;;;;;5129051;27;20687;-68
2022/10/25 00:16:24;;;;;;;4.27;2.30;;;15.40;99.90;;;;;;5129390;27;20232;-68
2022/10/25 00:18:51;;;;;;;5.53;2.03;;;15.40;99.90;;;;;;5129607;27;20198;-68
2022/10/25 00:21:19;;;;;;;6.33;2.23;;;15.40;99.90;;;;;;5129313;27;20201;-68
2022/10/25 00:23:45;;;;;;;3.87;2.70;;;15.40;99.90;;;;;;5128781;27;20754;-68
2022/10/25 00:26:13;;;;;;;6.80;2.50;;;15.40;99.90;;;;;;5121314;27;20210;-68
2022/10/25 00:28:40;;;;;;;3.50;2.40;;;15.40;99.90;;;;;;5108666;27;20214;-68
2022/10/25 00:31:09;;;;;;;6.20;2.70;;;15.40;99.90;;;;;;5119732;27;20233;-68
2022/10/25 00:33:38;;;;;;;7.33;2.43;;;15.40;99.90;;;;;;5128487;27;20198;-68
2022/10/25 00:36:06;;;;;;;5.97;2.90;;;15.40;99.90;;;;;;5128917;27;20652;-68
2022/10/25 00:38:33;;;;;;;4.10;2.13;;;15.40;99.90;;;;;;5128082;27;20213;-68
2022/10/25 00:41:00;;;;;;;6.27;2.43;;;15.30;99.90;;;;;;5128794;27;20212;-68
2022/10/25 00:43:35;;;;;;;5.83;2.57;;;15.30;99.90;;;;;;5128797;27;20206;-68
2022/10/25 00:46:05;;;;;;;8.70;2.77;;;15.30;99.90;;;;;;5108374;28;20220;-68
2022/10/25 00:48:32;;;;;;;3.73;2.60;;;15.30;99.90;;;;;;5126078;27;20204;-68
2022/10/25 00:51:02;;;;;;;4.10;2.30;;;15.30;99.90;;;;;;5128917;27;20255;-68
2022/10/25 00:53:34;;;;;;;4.97;2.70;;;15.20;99.90;;;;;;5128832;27;20212;-68
2022/10/25 00:56:05;;;;;;;2.73;2.07;;;15.20;99.90;;;;;;5122516;27;20216;-68
2022/10/25 00:58:35;;;;;;;6.87;2.70;;;15.20;99.90;;;;;;5108189;28;20195;-68
2022/10/25 01:01:06;;;;;;;4.87;2.80;;;15.20;99.90;;;;;;5108178;28;20194;-68
2022/10/25 01:03:36;;;;;;;8.43;2.90;;;15.20;99.90;;;;;;5120041;27;20212;-69
2022/10/25 01:06:07;;;;;;;6.10;2.57;;;15.20;99.90;;;;;;5128552;27;20201;-68
2022/10/25 01:08:34;;;;;;;5.03;2.60;;;15.20;99.90;;;;;;5128507;27;20225;-69
2022/10/25 01:11:01;;;;;;;3.13;2.47;;;15.20;99.90;;;;;;5128452;27;20228;-68
2022/10/25 01:13:28;;;;;;;6.97;2.40;;;15.20;99.90;;;;;;5128073;27;20656;-68
2022/10/25 01:16:03;;;;;;;3.53;2.47;;;15.20;99.90;;;;;;5107927;28;20211;-68
2022/10/25 01:18:42;;;;;;;6.47;2.47;;;15.20;99.90;;;;;;5108144;28;20193;-68
2022/10/25 01:21:39;;;;;;;4.77;2.30;;;15.20;99.90;;;;;;5123378;28;20193;-68
2022/10/25 01:24:34;;;;;;;3.70;2.37;;;15.20;99.90;;;;;;5128351;27;20205;-69
2022/10/25 01:27:39;;;;;;;8.17;2.87;;;15.20;99.90;;;;;;5101400;27;20209;-68
2022/10/25 01:30:15;;;;;;;4.57;2.67;;;15.20;99.90;;;;;;5112282;27;20660;-68
2022/10/25 01:32:50;;;;;;;5.37;2.87;;;15.20;99.90;;;;;;5128150;27;20951;-68
2022/10/25 01:35:26;;;;;;;9.27;3.07;;;15.20;99.90;;;;;;5128436;27;20189;-68
2022/10/25 01:38:02;;;;;;;4.80;2.57;;;15.20;99.90;;;;;;5128081;27;20212;-68
2022/10/25 01:40:33;;;;;;;4.77;2.30;;;15.20;99.90;;;;;;5128049;27;20205;-68
2022/10/25 01:43:05;;;;;;;7.70;2.47;;;15.20;99.90;;;;;;5128594;27;20190;-68
2022/10/25 01:45:39;;;;;;;5.87;2.97;;;15.20;99.90;;;;;;5128114;27;20558;-68
2022/10/25 01:48:13;;;;;;;6.40;2.40;;;15.20;99.90;;;;;;5128072;27;20679;-69
2022/10/25 01:50:43;;;;;;;5.93;2.80;;;15.30;99.90;;;;;;5131900;27;20200;-68
2022/10/25 01:53:11;;;;;;;7.20;2.50;;;15.20;99.90;;;;;;5132160;27;20205;-69
2022/10/25 01:55:43;;;;;;;6.47;2.63;;;15.20;99.90;;;;;;5128643;27;20631;-68
2022/10/25 01:58:18;;;;;;;4.70;2.97;;;15.20;99.90;;;;;;5111878;28;20194;-68
2022/10/25 02:00:53;;;;;;;6.20;2.80;;;15.20;99.90;;;;;;5111606;28;20208;-69
2022/10/25 02:03:27;;;;;;;8.50;2.90;;;15.20;99.90;;;;;;5111266;28;20248;-69
2022/10/25 02:06:07;;;;;;;3.17;2.40;;;15.20;99.90;;;;;;5111631;28;20547;-68
2022/10/25 02:08:39;;;;;;;3.43;2.40;;;15.20;99.90;;;;;;5111443;28;20225;-68
2022/10/25 02:11:14;;;;;;;5.67;2.97;;;15.20;99.90;;;;;;5111250;28;20221;-69
2022/10/25 02:13:52;;;;;;;6.33;2.73;;;15.20;99.90;;;;;;5123357;27;20196;-69
2022/10/25 02:16:24;;;;;;;7.93;2.67;;;15.20;99.90;;;;;;5131498;27;20194;-68
2022/10/25 02:18:56;;;;;;;5.47;2.60;;;15.20;99.90;;;;;;5131952;27;20189;-68
2022/10/25 02:21:26;;;;;;;6.27;2.40;;;15.30;99.90;;;;;;5113899;27;20715;-68
2022/10/25 02:23:54;;;;;;;9.67;2.83;;;15.20;99.90;;;;;;5111200;28;20206;-69
2022/10/25 02:26:22;;;;;;;4.67;2.77;;;15.20;99.90;;;;;;5111145;28;20552;-69
2022/10/25 02:28:50;;;;;;;6.47;2.87;;;15.20;99.90;;;;;;5123064;27;20208;-68
2022/10/25 02:31:19;;;;;;;4.97;2.20;;;15.20;99.90;;;;;;5130912;27;20970;-68
2022/10/25 02:33:47;;;;;;;7.87;2.80;;;15.20;99.90;;;;;;5113728;27;20660;-69
2022/10/25 02:36:18;;;;;;;7.87;2.70;;;15.20;99.90;;;;;;5111139;27;20657;-69
2022/10/25 02:38:46;;;;;;;4.93;2.60;;;15.20;99.90;;;;;;5110840;28;20198;-68
2022/10/25 02:41:13;;;;;;;6.00;2.70;;;15.20;99.90;;;;;;5110652;28;20206;-68
2022/10/25 02:43:40;;;;;;;4.03;2.50;;;15.20;99.90;;;;;;5115735;27;20205;-68
2022/10/25 02:46:09;;;;;;;6.57;2.73;;;15.20;99.90;;;;;;5112753;27;20210;-68
2022/10/25 02:48:36;;;;;;;5.37;2.63;;;15.20;99.90;;;;;;5131038;27;20201;-69
2022/10/25 02:51:03;;;;;;;3.90;2.60;;;15.20;99.90;;;;;;5131162;27;20564;-69
2022/10/25 02:53:32;;;;;;;6.50;2.43;;;15.20;99.90;;;;;;5131223;27;20209;-69
2022/10/25 02:56:03;;;;;;;4.93;2.50;;;15.20;99.90;;;;;;5124963;27;20202;-68
2022/10/25 02:58:31;;;;;;;6.67;2.50;;;15.20;99.90;;;;;;5110537;28;20198;-68
2022/10/25 03:00:59;;;;;;;4.67;2.10;;;15.10;99.90;;;;;;5115618;27;20672;-69
2022/10/25 03:03:26;;;;;;;5.57;2.10;;;15.00;99.90;;;;;;5130421;27;20699;-69
2022/10/25 03:05:53;;;;;;;7.23;2.60;;;15.00;99.90;;;;;;5130749;27;20209;-69
2022/10/25 03:08:20;;;;;;;2.90;2.47;;;15.00;99.90;;;;;;5130489;27;20730;-68
2022/10/25 03:10:49;;;;;;;5.27;2.40;;;15.00;99.90;;;;;;5130572;27;20369;-68
2022/10/25 03:13:17;;;;;;;3.20;2.20;;;14.90;99.90;;;;;;5130653;27;20221;-68
2022/10/25 03:15:45;;;;;;;5.03;2.20;;;14.90;99.90;;;;;;5130524;27;20210;-68
2022/10/25 03:18:11;;;;;;;5.07;2.10;;;14.90;99.90;;;;;;5130573;27;20204;-68
2022/10/25 03:20:38;;;;;;;5.77;2.00;;;14.90;99.90;;;;;;5130710;27;20568;-68
2022/10/25 03:23:05;;;;;;;3.60;1.90;;;14.80;99.90;;;;;;5130429;27;20205;-68
2022/10/25 03:25:32;;;;;;;2.37;1.80;;;14.90;99.90;;;;;;5128128;27;20210;-69
2022/10/25 03:28:00;;;;;;;6.83;1.70;;;14.90;99.90;;;;;;5109794;28;20206;-69
2022/10/25 03:30:27;;;;;;;4.87;2.00;;;14.80;99.90;;;;;;5110063;27;20202;-68
2022/10/25 03:32:54;;;;;;;4.70;2.17;;;14.80;99.90;;;;;;5124506;27;20249;-69
2022/10/25 03:35:21;;;;;;;5.73;2.00;;;14.80;99.90;;;;;;5122507;27;20201;-70
2022/10/25 03:37:48;;;;;;;2.43;1.43;;;14.80;99.90;;;;;;5129794;27;20668;-68
2022/10/25 03:40:15;;;;;;;2.47;1.50;;;14.80;99.90;;;;;;5129986;27;20201;-68
2022/10/25 03:42:42;;;;;;;1.83;1.40;;;14.80;99.90;;;;;;5130231;27;20232;-68
2022/10/25 03:45:11;;;;;;;3.77;1.60;;;14.80;99.90;;;;;;5130090;27;20270;-68
2022/10/25 03:47:38;;;;;;;2.33;1.60;;;14.80;99.90;;;;;;5129878;27;20208;-69
2022/10/25 03:50:06;;;;;;;4.97;2.13;;;14.80;99.90;;;;;;5130092;27;20205;-69
2022/10/25 03:52:33;;;;;;;5.30;1.70;;;14.80;99.90;;;;;;5116454;27;21068;-68
2022/10/25 03:55:00;;;;;;;4.73;1.53;;;14.80;99.90;;;;;;5109200;28;20206;-68
2022/10/25 03:57:27;;;;;;;3.00;1.50;;;14.80;99.90;;;;;;5109602;28;20214;-68
2022/10/25 03:59:54;;;;;;;3.93;1.50;;;14.80;99.90;;;;;;5109393;28;20228;-69
2022/10/25 04:02:22;;;;;;;2.53;1.70;;;14.80;99.90;;;;;;5108954;28;20241;-68
2022/10/25 04:04:48;;;;;;;2.27;1.40;;;14.70;99.90;;;;;;5109070;28;20676;-68
2022/10/25 04:07:15;;;;;;;4.40;1.67;;;14.80;99.90;;;;;;5109104;28;20580;-68
2022/10/25 04:09:42;;;;;;;5.03;1.53;;;14.80;99.90;;;;;;5123165;27;20228;-68
2022/10/25 04:12:09;;;;;;;3.13;1.33;;;14.80;99.90;;;;;;5129581;27;20225;-68
2022/10/25 04:14:35;;;;;;;2.13;1.03;;;14.80;99.90;;;;;;5129324;27;20212;-68
2022/10/25 04:17:02;;;;;;;4.10;1.40;;;14.80;99.90;;;;;;5129766;27;20201;-68
2022/10/25 04:19:30;;;;;;;2.20;0.83;;;14.80;99.90;;;;;;5128103;27;20208;-68
2022/10/25 04:21:57;;;;;;;1.30;1.10;;;14.70;99.90;;;;;;5108791;28;20684;-68
2022/10/25 04:24:24;;;;;;;4.10;1.17;;;14.70;99.90;;;;;;5108665;28;20214;-68
2022/10/25 04:26:50;;;;;;;2.00;1.00;;;14.70;99.90;;;;;;5122082;27;20209;-68
2022/10/25 04:29:17;;;;;;;2.70;1.20;;;14.70;99.90;;;;;;5128900;27;20686;-68
2022/10/25 04:31:44;;;;;;;2.60;1.10;;;14.60;99.90;;;;;;5128683;27;20244;-68
2022/10/25 04:34:11;;;;;;;2.53;1.07;;;14.70;99.90;;;;;;5129077;27;20201;-68
2022/10/25 04:36:39;;;;;;;1.63;0.97;;;14.60;99.90;;;;;;5129067;27;20208;-68
2022/10/25 04:39:06;;;;;;;6.27;1.10;;;14.60;99.90;;;;;;5128811;27;20210;-69
2022/10/25 04:41:32;;;;;;;2.27;1.37;;;14.50;99.90;;;;;;5128940;27;20198;-69
2022/10/25 04:43:59;;;;;;;1.87;1.10;;;14.50;99.90;;;;;;5129096;27;20209;-68
2022/10/25 04:46:26;;;;;;;1.90;1.37;;;14.50;99.90;;;;;;5128639;27;20210;-69
2022/10/25 04:48:53;;;;;;;1.93;1.10;;;14.50;99.90;;;;;;5128609;27;20690;-68
2022/10/25 04:51:19;;;;;;;2.60;1.50;;;14.50;99.90;;;;;;5128895;27;20694;-68
2022/10/25 04:53:47;;;;;;;2.07;1.40;;;14.40;99.90;;;;;;5128668;27;20236;-68
2022/10/25 04:56:14;;;;;;;2.87;1.57;;;14.50;99.90;;;;;;5120847;27;20225;-68
2022/10/25 04:58:41;;;;;;;1.80;1.40;;;14.40;99.90;;;;;;5108304;28;20557;-68
2022/10/25 05:01:10;;;;;;;4.07;1.63;;;14.40;99.90;;;;;;5118955;27;20205;-69
2022/10/25 05:03:37;;;;;;;1.57;1.13;;;14.40;99.90;;;;;;5128583;27;20201;-68
2022/10/25 05:06:08;;;;;;;3.13;1.40;;;14.40;99.90;;;;;;5128897;27;20221;-68
2022/10/25 05:08:35;;;;;;;2.83;1.10;;;14.40;99.90;;;;;;5128294;27;20240;-69
2022/10/25 05:11:04;;;;;;;2.00;1.00;;;14.30;99.90;;;;;;5128374;27;20620;-68
2022/10/25 05:13:34;;;;;;;2.87;1.43;;;14.30;99.90;;;;;;5128808;27;20233;-68
2022/10/25 05:16:01;;;;;;;2.73;1.70;;;14.30;99.90;;;;;;5128461;27;20777;-68
2022/10/25 05:18:28;;;;;;;3.07;1.17;;;14.30;99.90;;;;;;5128653;27;20208;-68
2022/10/25 05:20:56;;;;;;;1.97;1.20;;;14.20;99.90;;;;;;5114927;27;20225;-68
2022/10/25 05:23:23;;;;;;;2.83;1.27;;;14.20;99.90;;;;;;5108424;28;20202;-68
2022/10/25 05:26:00;;;;;;;1.80;1.17;;;14.20;99.90;;;;;;5116451;27;20216;-68
2022/10/25 05:28:28;;;;;;;4.03;1.10;;;14.20;99.90;;;;;;5135583;27;20193;-68
2022/10/25 05:30:55;;;;;;;2.23;1.30;;;14.20;99.90;;;;;;5115028;27;20209;-69
2022/10/25 05:33:22;;;;;;;2.47;1.20;;;14.20;99.90;;;;;;5128376;27;20227;-69
2022/10/25 05:35:48;;;;;;;3.40;1.40;;;14.30;99.90;;;;;;5134706;27;20546;-68
2022/10/25 05:38:15;;;;;;;2.67;1.50;;;14.30;99.90;;;;;;5135404;27;20201;-68
2022/10/25 05:40:42;;;;;;;4.77;1.47;;;14.30;99.90;;;;;;5135369;27;20240;-68
2022/10/25 05:43:08;;;;;;;6.80;1.57;;;14.40;99.90;;;;;;5135359;27;20208;-68
2022/10/25 05:45:36;;;;;;;4.03;1.20;;;14.40;99.90;;;;;;5135070;27;20197;-68
2022/10/25 05:48:03;;;;;;;3.00;1.20;;;14.40;99.90;;;;;;5135391;27;20217;-68
2022/10/25 05:50:30;;;;;;;4.77;1.43;;;14.50;99.90;;;;;;5135637;27;20581;-68
2022/10/25 05:52:57;;;;;;;3.10;1.10;;;14.40;99.90;;;;;;5135429;27;20239;-68
2022/10/25 05:55:24;;;;;;;1.83;1.20;;;14.40;99.90;;;;;;5134661;27;20291;-68
2022/10/25 05:57:51;;;;;;;4.27;1.50;;;14.40;99.90;;;;;;5135352;27;20202;-68
2022/10/25 06:00:18;;;;;;;1.83;1.50;;;14.30;99.90;;;;;;5134874;27;20201;-68
2022/10/25 06:02:46;;;;;;;2.97;1.53;;;14.40;99.90;;;;;;5134651;27;20248;-68
2022/10/25 06:05:13;;;;;;;3.77;1.37;;;14.30;99.90;;;;;;5135075;27;20205;-68
2022/10/25 06:07:40;;;;;;;1.97;1.27;;;14.20;99.90;;;;;;5134972;27;20752;-68
2022/10/25 06:10:07;;;;;;;3.23;1.50;;;14.20;99.90;;;;;;5134892;27;20205;-68
2022/10/25 06:12:35;;;;;;;1.63;1.03;;;14.20;99.90;;;;;;5134707;27;20232;-68
2022/10/25 06:15:02;;;;;;;2.57;1.80;;;14.20;99.90;;;;;;5135092;27;20215;-68
2022/10/25 06:17:29;;;;;;;2.70;1.40;;;14.20;99.90;;;;;;5134721;27;20205;-68
2022/10/25 06:19:57;;;;;;;1.50;1.30;;;14.20;99.90;;;;;;5134968;27;20201;-68
2022/10/25 06:22:24;;;;;;;3.80;1.23;;;14.20;99.90;;;;;;5122560;27;20212;-68
2022/10/25 06:24:50;;;;;;;4.13;1.10;;;14.20;99.90;;;;;;5113891;27;20572;-68
2022/10/25 06:27:17;;;;;;;1.40;1.10;;;14.20;99.90;;;;;;5131155;27;20212;-68
2022/10/25 06:29:44;;;;;;;3.13;1.20;;;14.20;99.90;;;;;;5134441;27;20202;-68
2022/10/25 06:32:11;;;;;;;2.73;1.30;;;14.20;99.90;;;;;;5130724;27;20205;-68
2022/10/25 06:34:38;;;;;;;1.20;1.10;;;14.20;99.90;;;;;;5113950;27;20230;-69
2022/10/25 06:37:06;;;;;;;2.27;0.87;;;14.20;99.90;;;;;;5109959;28;20202;-68
2022/10/25 06:39:32;;;;;;;2.67;1.20;;;14.30;99.90;;;;;;5111055;27;20228;-68
2022/10/25 06:41:59;;;;;;;5.43;1.50;;;14.30;99.90;;;;;;5110764;28;20208;-68
2022/10/25 06:44:26;;;;;;;3.70;1.40;;;14.30;99.90;;;;;;5110931;28;20568;-68
2022/10/25 06:46:53;;;;;;;2.70;1.40;;;14.30;99.90;;;;;;5128016;27;20208;-68
2022/10/25 06:49:19;;;;;;;2.10;1.30;;;14.30;99.90;;;;;;5131152;27;20201;-68
2022/10/25 06:51:46;;;;;;;5.13;1.50;;;14.30;99.90;;;;;;5130723;27;20205;-68
2022/10/25 06:54:14;;;;;;;2.63;1.30;;;14.30;99.90;;;;;;5130879;27;20233;-68
2022/10/25 06:56:41;;;;;;;3.17;1.10;;;14.40;99.90;;;;;;5129622;27;20201;-68
2022/10/25 06:59:08;;;;;;;3.30;1.23;;;14.40;99.90;;;;;;5131061;27;20201;-68
2022/10/25 07:01:34;;;;;;;4.00;1.30;;;14.50;99.90;;;;;;5130714;27;20725;-68
2022/10/25 07:04:02;;;;;;;8.23;1.50;;;14.40;99.90;;;;;;5129622;27;20190;-69
2022/10/25 07:06:34;;;;;;;5.53;1.30;;;14.50;99.90;;;;;;5130845;27;20212;-69
2022/10/25 07:09:01;;;;;;;4.47;1.57;;;14.50;99.90;;;;;;5130380;27;20222;-68
2022/10/25 07:11:31;;;;;;;2.77;1.13;;;14.50;99.90;;;;;;5130804;27;20758;-69
2022/10/25 07:14:00;;;;;;;3.43;1.13;;;14.50;99.90;;;;;;5130653;27;20229;-68
2022/10/25 07:16:28;;;;;;;6.77;1.33;;;14.40;99.90;;;;;;5130693;27;20587;-68
2022/10/25 07:18:59;;;;;;;3.33;1.13;;;14.50;99.90;;;;;;5127627;27;20201;-68
2022/10/25 07:21:26;;;;;;;3.63;1.27;;;14.50;99.90;;;;;;5130550;27;20209;-68
2022/10/25 07:23:53;;;;;;;8.73;4.60;;;14.60;99.90;;;;;;5129857;27;20728;-68
2022/10/25 07:26:24;;;;;;;5.27;3.33;;;14.50;99.90;;;;;;5127424;27;20212;-68
2022/10/25 07:28:54;;;;;;;4.53;3.00;;;14.50;99.90;;;;;;5130282;27;20280;-68
2022/10/25 07:31:23;;;;;;;2.33;1.23;;;14.50;99.90;;;;;;5130460;27;20194;-68
2022/10/25 07:33:50;;;;;;;2.07;1.50;;;14.50;99.90;;;;;;5128746;27;20230;-68
2022/10/25 07:36:18;;;;;;;2.13;1.60;;;14.40;99.90;;;;;;5130285;27;20259;-68
2022/10/25 07:38:44;;;;;;;5.07;1.50;;;14.40;99.90;;;;;;5130225;27;20198;-68
2022/10/25 07:41:11;;;;;;;6.20;1.57;;;14.40;99.90;;;;;;5129854;27;20193;-68
2022/10/25 07:43:38;;;;;;;2.43;1.30;;;14.40;99.90;;;;;;5130130;27;20208;-68
2022/10/25 07:46:07;;;;;;;3.17;1.50;;;14.40;99.90;;;;;;5129794;27;20217;-68
2022/10/25 07:48:34;;;;;;;4.63;1.87;;;14.40;99.90;;;;;;5129187;27;20727;-69
2022/10/25 07:51:04;;;;;;;5.53;2.13;;;14.30;99.90;;;;;;5130372;27;20573;-68
2022/10/25 07:53:34;;;;;;;3.30;1.70;;;14.30;99.90;;;;;;5129653;27;20226;-68
2022/10/25 07:56:00;;;;;;;2.50;1.60;;;14.30;99.90;;;;;;5129680;27;20213;-69
2022/10/25 07:58:27;;;;;;;3.97;1.60;;;14.30;99.90;;;;;;5129776;27;20201;-68
2022/10/25 08:01:01;;;;;;;2.53;1.40;;;14.20;99.90;;;;;;5129791;27;20652;-68
2022/10/25 08:03:29;;;;;;;8.43;1.77;;;14.20;99.90;;;;;;5129376;27;20313;-68
2022/10/25 08:05:56;;;;;;;3.83;1.90;;;14.20;99.90;;;;;;5129684;27;20205;-68
2022/10/25 08:08:24;;;;;;;4.50;1.70;;;14.10;99.90;;;;;;5129821;27;20217;-68
2022/10/25 08:10:51;;;;;;;5.30;1.70;;;14.10;99.90;;;;;;5128951;27;20205;-69
2022/10/25 08:13:18;;;;;;;3.73;1.57;;;14.20;99.90;;;;;;5129233;27;20682;-68
2022/10/25 08:15:49;;;;;;;2.77;1.33;;;14.20;99.90;;;;;;5129344;27;20209;-68
2022/10/25 08:18:16;;;;;;;2.33;1.43;;;14.20;99.90;;;;;;5129063;27;20202;-68
2022/10/25 08:20:44;;;;;;;2.93;1.37;;;14.20;99.90;;;;;;5129541;27;20208;-68
2022/10/25 08:23:11;;;;;;;5.33;1.67;;;14.20;99.90;;;;;;5128736;27;20208;-68
2022/10/25 08:25:38;;;;;;;4.67;1.70;;;14.20;99.90;;;;;;5129121;27;20217;-68
2022/10/25 08:28:05;;;;;;;3.87;1.53;;;14.20;99.90;;;;;;5129611;27;20201;-68
2022/10/25 08:30:32;;;;;;;3.93;1.70;;;14.20;99.90;;;;;;5128912;27;20926;-68
2022/10/25 08:32:59;;;;;;;3.77;1.80;;;14.20;99.90;;;;;;5118745;27;20229;-68
2022/10/25 08:35:26;;;;;;;3.50;1.97;;;14.30;99.90;;;;;;5108844;28;20213;-68
2022/10/25 08:37:54;;;;;;;4.43;1.77;;;14.30;99.90;;;;;;5108468;28;20201;-68
2022/10/25 08:40:24;;;;;;;2.67;1.40;;;14.30;99.90;;;;;;5108414;28;20210;-68
2022/10/25 08:43:01;;;;;;;1.87;1.27;;;14.40;99.90;;;;;;5108696;28;20786;-69
2022/10/25 08:45:35;;;;;;;4.53;1.60;;;14.40;99.90;;;;;;5108372;28;20255;-69
2022/10/25 08:48:04;;;;;;;4.03;1.50;;;14.40;99.90;;;;;;5108502;28;20217;-68
2022/10/25 08:50:37;;;;;;;3.77;1.70;;;14.50;99.90;;;;;;5113906;27;20198;-68
2022/10/25 08:53:12;;;;;;;3.53;1.60;;;14.60;99.90;;;;;;5128945;27;20216;-68
2022/10/25 08:55:41;;;;;;;2.70;1.70;;;14.80;99.90;;;;;;5128228;27;20211;-68
2022/10/25 08:58:15;;;;;;;6.23;1.57;;;14.90;99.90;;;;;;5128399;27;20196;-68
2022/10/25 09:00:44;;;;;;;5.50;1.93;;;15.00;99.90;;;;;;5128264;27;20198;-68
2022/10/25 09:03:15;;;;;;;4.87;1.77;;;15.00;99.90;;;;;;5128401;27;20245;-68
2022/10/25 09:05:46;;;;;;;4.90;1.70;;;15.10;99.90;;;;;;5128531;27;20197;-68
2022/10/25 09:08:34;;;;;;;3.97;1.30;;;15.10;99.90;;;;;;5128423;27;20226;-68
2022/10/25 09:11:08;;;;;;;4.73;1.83;;;15.10;99.90;;;;;;5125191;27;20672;-69
2022/10/25 09:13:43;;;;;;;7.70;1.93;;;15.10;99.90;;;;;;5128602;27;20221;-68
2022/10/25 09:16:15;;;;;;;2.30;1.23;;;15.10;99.90;;;;;;5128610;27;20556;-68
2022/10/25 09:18:47;;;;;;;6.60;1.70;;;15.10;99.90;;;;;;5128304;27;20201;-68
2022/10/25 09:21:18;;;;;;;6.10;1.93;;;15.10;99.90;;;;;;5112553;27;20213;-69
2022/10/25 09:24:01;;;;;;;4.00;1.97;;;15.10;99.90;;;;;;5107974;28;20256;-69
2022/10/25 09:26:40;;;;;;;2.93;1.63;;;15.30;99.90;;;;;;5108080;28;20202;-68
2022/10/25 09:29:13;;;;;;;4.57;1.70;;;15.50;99.90;;;;;;5113899;28;20236;-68
2022/10/25 09:31:44;;;;;;;5.53;1.70;;;15.60;99.90;;;;;;5128508;27;20190;-68
2022/10/25 09:34:11;;;;;;;6.03;2.13;;;15.60;99.90;;;;;;5128503;27;20264;-68
2022/10/25 09:36:46;;;;;;;5.60;1.73;;;15.80;99.90;;;;;;5128345;27;20397;-68
2022/10/25 09:39:20;;;;;;;3.47;1.70;;;15.80;99.90;;;;;;5128503;27;20200;-68
2022/10/25 09:41:51;;;;;;;3.20;1.60;;;15.90;99.90;;;;;;5128516;27;20201;-68
2022/10/25 09:44:29;;;;;;;6.03;1.70;;;16.00;99.90;;;;;;5128474;27;20210;-68
2022/10/25 09:47:02;;;;;;;4.83;2.23;;;16.00;99.90;;;;;;5128441;27;20229;-68
2022/10/25 09:49:34;;;;;;;5.93;1.90;;;16.10;99.90;;;;;;5128390;27;20262;-68
2022/10/25 09:52:06;;;;;;;3.77;1.83;;;16.10;99.90;;;;;;5128671;27;20196;-68
2022/10/25 09:54:41;;;;;;;5.87;1.60;;;16.10;99.90;;;;;;5127951;27;20707;-68
2022/10/25 09:57:08;;;;;;;3.67;1.57;;;16.10;99.90;;;;;;5128517;27;20209;-68
2022/10/25 09:59:35;;;;;;;2.87;1.80;;;16.10;99.90;;;;;;5128404;27;20197;-68
2022/10/25 10:02:02;;;;;;;4.50;1.87;;;16.00;99.90;;;;;;5128062;27;20229;-68
2022/10/25 10:04:35;;;;;;;5.70;1.97;;;16.00;99.90;;;;;;5128344;27;20568;-68
2022/10/25 10:07:07;;;;;;;3.70;1.70;;;16.00;99.90;;;;;;5119062;27;20214;-68
2022/10/25 10:09:37;;;;;;;6.10;1.80;;;16.00;99.90;;;;;;5107396;28;20600;-69
2022/10/25 10:12:06;;;;;;;3.87;2.20;;;16.00;99.90;;;;;;5111571;28;20209;-68
2022/10/25 10:14:38;;;;;;;3.97;1.93;;;16.00;99.90;;;;;;5120103;27;20233;-68
2022/10/25 10:17:07;;;;;;;5.73;2.00;;;15.90;99.90;;;;;;5132150;27;20644;-68
2022/10/25 10:19:33;;;;;;;2.20;1.83;;;15.90;99.90;;;;;;5129343;27;20197;-68
2022/10/25 10:22:02;;;;;;;4.87;2.03;;;15.90;99.90;;;;;;5120539;27;20205;-68
2022/10/25 10:24:32;;;;;;;4.60;2.00;;;15.80;99.90;;;;;;5131524;27;20206;-68
2022/10/25 10:27:02;;;;;;;3.60;1.90;;;15.80;99.90;;;;;;5131570;27;20209;-68
2022/10/25 10:29:31;;;;;;;3.93;1.97;;;15.80;99.90;;;;;;5131299;27;20193;-68
2022/10/25 10:32:00;;;;;;;3.57;1.60;;;15.80;99.90;;;;;;5129450;27;20221;-68
2022/10/25 10:34:30;;;;;;;3.53;1.63;;;15.80;99.90;;;;;;5110897;28;20234;-69
2022/10/25 10:37:06;;;;;;;4.73;2.13;;;15.80;99.90;;;;;;5110747;28;20691;-68
2022/10/25 10:39:33;;;;;;;4.23;1.83;;;15.80;99.90;;;;;;5110768;28;20201;-69
2022/10/25 10:42:13;;;;;;;4.50;1.97;;;15.80;99.90;;;;;;5110785;28;20202;-68
2022/10/25 10:44:40;;;;;;;6.57;2.27;;;15.80;99.90;;;;;;5120562;27;20190;-68
2022/10/25 10:47:12;;;;;;;4.23;1.80;;;15.90;99.90;;;;;;5130869;27;20202;-68
2022/10/25 10:49:41;;;;;;;4.33;1.87;;;15.90;99.90;;;;;;5131284;27;20193;-68
2022/10/25 10:52:26;;;;;;;6.40;1.97;;;15.90;99.90;;;;;;5131393;27;20206;-68
2022/10/25 10:54:53;;;;;;;3.87;1.60;;;15.90;99.90;;;;;;5130893;27;20228;-68
2022/10/25 10:57:32;;;;;;;4.47;1.77;;;16.00;99.90;;;;;;5113514;27;20689;-68
2022/10/25 11:00:01;;;;;;;3.47;1.70;;;16.10;99.90;;;;;;5122396;27;20190;-68
2022/10/25 11:02:37;;;;;;;6.73;1.90;;;16.10;99.90;;;;;;5127085;27;20253;-68
2022/10/25 11:05:19;;;;;;;3.43;1.50;;;16.10;99.90;;;;;;5130903;27;20201;-68
2022/10/25 11:07:53;;;;;;;6.20;2.27;;;16.20;99.90;;;;;;5130813;27;20700;-68
2022/10/25 11:10:24;;;;;;;7.63;2.17;;;16.30;99.90;;;;;;5125282;27;20212;-68
2022/10/25 11:13:08;;;;;;;5.87;2.07;;;16.30;99.90;;;;;;5109948;28;20206;-68
2022/10/25 11:15:57;;;;;;;6.57;2.00;;;16.40;99.90;;;;;;5108461;27;20234;-68
2022/10/25 11:18:32;;;;;;;5.90;2.07;;;16.40;99.90;;;;;;5102473;28;20213;-68
2022/10/25 11:21:04;;;;;;;6.67;2.10;;;16.40;99.90;;;;;;5110148;28;20690;-68
2022/10/25 11:23:45;;;;;;;5.60;2.27;;;16.40;99.90;;;;;;5130248;27;20229;-68
2022/10/25 11:26:21;;;;;;;6.27;2.03;;;16.50;99.90;;;;;;5130394;27;20202;-68
2022/10/25 11:28:55;;;;;;;7.50;2.27;;;16.50;99.90;;;;;;5130783;27;20189;-68
2022/10/25 11:31:29;;;;;;;6.57;2.30;;;16.50;99.90;;;;;;5130466;27;20648;-68
2022/10/25 11:34:08;;;;;;;7.60;2.30;;;16.50;99.90;;;;;;5111494;27;20236;-68
2022/10/25 11:36:45;;;;;;;5.90;1.97;;;16.60;99.90;;;;;;5110111;28;20205;-68
2022/10/25 11:39:31;;;;;;;2.87;1.60;;;16.80;99.90;;;;;;5112552;27;20197;-68
2022/10/25 11:42:04;;;;;;;5.43;2.10;;;17.00;99.90;;;;;;5130303;27;20193;-68
2022/10/25 11:44:53;;;;;;;6.50;2.37;;;17.30;99.90;;;;;;5130450;27;20198;-68
2022/10/25 11:47:31;;;;;;;8.43;2.30;;;17.40;99.90;;;;;;5129558;27;20189;-68
2022/10/25 11:50:11;;;;;;;8.90;2.40;;;17.60;99.90;;;;;;5130425;27;20197;-68
2022/10/25 11:53:09;;;;;;;4.03;2.10;;;17.60;99.90;;;;;;5130035;27;20202;-68
2022/10/25 11:55:40;;;;;;;3.90;1.90;;;17.90;99.90;;;;;;5126631;27;20229;-68
2022/10/25 11:58:23;;;;;;;6.13;1.67;;;17.90;99.90;;;;;;5130175;27;20192;-68
2022/10/25 12:01:00;;;;;;;3.97;1.83;;;17.90;99.90;;;;;;5109450;27;20218;-68
2022/10/25 12:03:42;;;;;;;5.10;1.93;;;17.90;99.90;;;;;;5109225;28;20237;-68
2022/10/25 12:06:19;;;;;;;4.33;2.10;;;17.80;99.90;;;;;;5109930;27;20607;-68
2022/10/25 12:08:58;;;;;;;3.77;1.93;;;17.70;99.90;;;;;;5129925;27;20221;-68
2022/10/25 12:11:28;;;;;;;3.57;1.93;;;17.70;99.90;;;;;;5108797;28;20644;-68
2022/10/25 12:13:58;;;;;;;2.80;1.50;;;17.60;99.90;;;;;;5128256;27;20206;-68
2022/10/25 12:16:29;;;;;;;3.40;1.80;;;17.60;99.90;;;;;;5129603;27;20701;-68
2022/10/25 12:19:04;;;;;;;5.00;1.80;;;17.60;99.90;;;;;;5129484;27;20193;-68
2022/10/25 12:21:40;;;;;;;5.50;1.80;;;17.70;99.90;;;;;;5129503;27;20730;-68
2022/10/25 12:24:15;;;;;;;4.47;1.80;;;17.80;99.90;;;;;;5129416;27;20216;-68
2022/10/25 12:26:43;;;;;;;4.17;1.93;;;17.70;99.90;;;;;;5129294;27;20208;-68
2022/10/25 12:29:16;;;;;;;3.40;1.77;;;17.60;99.90;;;;;;5128982;27;20197;-68
2022/10/25 12:31:49;;;;;;;2.63;1.73;;;17.40;99.90;;;;;;5129084;27;20196;-68
2022/10/25 12:34:19;;;;;;;5.83;1.90;;;17.30;99.90;;;;;;5107647;28;20222;-68
2022/10/25 12:36:49;;;;;;;3.63;1.80;;;17.20;99.90;;;;;;5108514;28;20205;-68
2022/10/25 12:39:21;;;;;;;5.40;1.97;;;17.10;99.90;;;;;;5111293;27;20284;-68
2022/10/25 12:41:51;;;;;;;4.27;1.70;;;17.00;99.90;;;;;;5128868;27;20197;-68
2022/10/25 12:44:38;;;;;;;3.93;1.90;;;17.30;99.90;;;;;;5128984;27;20197;-68
2022/10/25 12:47:17;;;;;;;3.60;1.80;;;17.60;99.90;;;;;;5128874;27;20197;-68
2022/10/25 12:50:10;;;;;;;6.13;1.87;;;17.80;99.90;;;;;;5128689;27;20274;-68
2022/10/25 12:52:39;;;;;;;3.57;2.13;;;18.00;99.90;;;;;;5129028;27;20194;-68
2022/10/25 12:55:33;;;;;;;5.10;1.80;;;18.20;99.90;;;;;;5128160;27;20229;-68
2022/10/25 12:58:20;;;;;;;3.10;1.60;;;18.50;99.90;;;;;;5118046;27;20190;-68
2022/10/25 13:01:03;;;;;;;4.90;2.20;;;18.60;99.90;;;;;;5128316;27;20186;-68
2022/10/25 13:03:55;;;;;;;3.17;1.80;;;18.60;99.90;;;;;;5127977;27;20233;-68
2022/10/25 13:06:32;;;;;;;4.00;1.60;;;18.50;99.90;;;;;;5128667;27;20213;-68